sensor_id;sensor_type;location;lat;lon;timestamp;pressure;altitude;pressure_sealevel;temperature;humidity
53480;BME280;56133;51.012;-1.648;2022-08-18T00:02:12;100554.16;;;16.39;100.00
53480;BME280;56133;51.012;-1.648;2022-08-18T00:04:39;100548.03;;;16.37;100.00
53480;BME280;56133;51.012;-1.648;2022-08-18T00:07:06;100546.53;;;16.35;100.00
53480;BME280;56133;51.012;-1.648;2022-08-18T00:09:36;100554.34;;;16.21;100.00
53480;BME280;56133;51.012;-1.648;2022-08-18T00:12:06;100559.56;;;16.31;100.00
53480;BME280;56133;51.012;-1.648;2022-08-18T00:14:33;100560.75;;;16.29;100.00
53480;BME280;56133;51.012;-1.648;2022-08-18T00:16:59;100564.34;;;16.29;100.00
53480;BME280;56133;51.012;-1.648;2022-08-18T00:19:25;100566.50;;;16.42;100.00
53480;BME280;56133;51.012;-1.648;2022-08-18T00:21:51;100575.47;;;16.51;100.00
53480;BME280;56133;51.012;-1.648;2022-08-18T00:24:17;100568.03;;;16.61;100.00
53480;BME280;56133;51.012;-1.648;2022-08-18T00:26:42;100560.91;;;16.60;100.00
53480;BME280;56133;51.012;-1.648;2022-08-18T00:29:08;100563.44;;;16.62;100.00
53480;BME280;56133;51.012;-1.648;2022-08-18T00:31:33;100561.94;;;16.59;100.00
53480;BME280;56133;51.012;-1.648;2022-08-18T00:33:59;100566.47;;;16.59;100.00
53480;BME280;56133;51.012;-1.648;2022-08-18T00:36:26;100577.69;;;16.64;100.00
53480;BME280;56133;51.012;-1.648;2022-08-18T00:38:52;100580.19;;;16.74;100.00
53480;BME280;56133;51.012;-1.648;2022-08-18T00:41:18;100572.91;;;16.82;100.00
53480;BME280;56133;51.012;-1.648;2022-08-18T00:43:47;100578.31;;;16.74;100.00
53480;BME280;56133;51.012;-1.648;2022-08-18T00:46:17;100576.97;;;16.78;100.00
53480;BME280;56133;51.012;-1.648;2022-08-18T00:48:44;100584.75;;;16.81;100.00
53480;BME280;56133;51.012;-1.648;2022-08-18T00:51:13;100579.69;;;16.78;100.00
53480;BME280;56133;51.012;-1.648;2022-08-18T00:53:45;100582.56;;;16.77;100.00
53480;BME280;56133;51.012;-1.648;2022-08-18T00:56:18;100579.69;;;16.78;100.00
53480;BME280;56133;51.012;-1.648;2022-08-18T00:58:51;100578.47;;;16.89;100.00
53480;BME280;56133;51.012;-1.648;2022-08-18T01:01:20;100574.59;;;16.83;100.00
53480;BME280;56133;51.012;-1.648;2022-08-18T01:03:50;100581.88;;;16.83;100.00
53480;BME280;56133;51.012;-1.648;2022-08-18T01:08:52;100580.69;;;16.77;100.00
53480;BME280;56133;51.012;-1.648;2022-08-18T01:11:18;100574.78;;;16.65;100.00
53480;BME280;56133;51.012;-1.648;2022-08-18T01:13:44;100577.81;;;16.79;100.00
53480;BME280;56133;51.012;-1.648;2022-08-18T01:16:10;100579.72;;;16.70;100.00
53480;BME280;56133;51.012;-1.648;2022-08-18T01:18:54;100571.38;;;16.72;100.00
53480;BME280;56133;51.012;-1.648;2022-08-18T01:21:45;100571.22;;;16.73;100.00
53480;BME280;56133;51.012;-1.648;2022-08-18T01:24:17;100565.47;;;16.68;100.00
53480;BME280;56133;51.012;-1.648;2022-08-18T01:26:43;100562.91;;;16.66;100.00
53480;BME280;56133;51.012;-1.648;2022-08-18T01:29:17;100563.94;;;16.65;100.00
53480;BME280;56133;51.012;-1.648;2022-08-18T01:31:46;100562.25;;;16.64;100.00
53480;BME280;56133;51.012;-1.648;2022-08-18T01:34:15;100561.06;;;16.67;100.00
53480;BME280;56133;51.012;-1.648;2022-08-18T01:36:42;100564.13;;;16.64;100.00
53480;BME280;56133;51.012;-1.648;2022-08-18T01:39:10;100561.94;;;16.59;100.00
53480;BME280;56133;51.012;-1.648;2022-08-18T01:41:36;100560.41;;;16.57;100.00
53480;BME280;56133;51.012;-1.648;2022-08-18T01:44:03;100559.56;;;16.56;100.00
53480;BME280;56133;51.012;-1.648;2022-08-18T01:46:32;100556.16;;;16.54;100.00
53480;BME280;56133;51.012;-1.648;2022-08-18T01:49:00;100557.69;;;16.57;100.00
53480;BME280;56133;51.012;-1.648;2022-08-18T01:51:30;100553.59;;;16.61;100.00
53480;BME280;56133;51.012;-1.648;2022-08-18T01:53:57;100561.25;;;16.57;100.00
53480;BME280;56133;51.012;-1.648;2022-08-18T01:56:23;100549.72;;;16.55;100.00
53480;BME280;56133;51.012;-1.648;2022-08-18T01:58:51;100551.44;;;16.48;100.00
53480;BME280;56133;51.012;-1.648;2022-08-18T02:01:16;100549.38;;;16.50;100.00
53480;BME280;56133;51.012;-1.648;2022-08-18T02:03:46;100549.38;;;16.50;100.00
53480;BME280;56133;51.012;-1.648;2022-08-18T02:06:15;100551.94;;;16.51;100.00
53480;BME280;56133;51.012;-1.648;2022-08-18T02:08:45;100552.78;;;16.44;100.00
53480;BME280;56133;51.012;-1.648;2022-08-18T02:11:11;100551.75;;;16.53;100.00
53480;BME280;56133;51.012;-1.648;2022-08-18T02:13:37;100541.94;;;16.44;100.00
53480;BME280;56133;51.012;-1.648;2022-08-18T02:16:03;100545.50;;;16.44;100.00
53480;BME280;56133;51.012;-1.648;2022-08-18T02:18:34;100540.59;;;16.48;100.00
53480;BME280;56133;51.012;-1.648;2022-08-18T02:21:15;100529.56;;;16.49;100.00
53480;BME280;56133;51.012;-1.648;2022-08-18T02:23:42;100537.69;;;16.49;100.00
53480;BME280;56133;51.012;-1.648;2022-08-18T02:26:10;100533.66;;;16.37;100.00
53480;BME280;56133;51.012;-1.648;2022-08-18T02:28:36;100531.28;;;16.26;100.00
53480;BME280;56133;51.012;-1.648;2022-08-18T02:31:16;100533.81;;;16.19;100.00
53480;BME280;56133;51.012;-1.648;2022-08-18T02:33:42;100531.59;;;16.06;100.00
53480;BME280;56133;51.012;-1.648;2022-08-18T02:36:08;100533.31;;;16.07;100.00
53480;BME280;56133;51.012;-1.648;2022-08-18T02:38:35;100529.75;;;15.90;100.00
53480;BME280;56133;51.012;-1.648;2022-08-18T02:41:02;100533.59;;;15.79;100.00
53480;BME280;56133;51.012;-1.648;2022-08-18T02:43:30;100535.28;;;15.72;100.00
53480;BME280;56133;51.012;-1.648;2022-08-18T02:45:56;100535.78;;;15.59;100.00
53480;BME280;56133;51.012;-1.648;2022-08-18T02:48:22;100536.09;;;15.56;100.00
53480;BME280;56133;51.012;-1.648;2022-08-18T02:51:14;100534.78;;;15.85;100.00
53480;BME280;56133;51.012;-1.648;2022-08-18T02:53:42;100537.81;;;15.82;100.00
53480;BME280;56133;51.012;-1.648;2022-08-18T02:56:20;100535.63;;;15.77;100.00
53480;BME280;56133;51.012;-1.648;2022-08-18T02:58:48;100536.81;;;15.74;100.00
53480;BME280;56133;51.012;-1.648;2022-08-18T03:01:14;100546.97;;;15.72;100.00
53480;BME280;56133;51.012;-1.648;2022-08-18T03:03:39;100534.13;;;15.74;100.00
53480;BME280;56133;51.012;-1.648;2022-08-18T03:06:05;100533.09;;;15.84;100.00
53480;BME280;56133;51.012;-1.648;2022-08-18T03:08:30;100531.75;;;15.80;100.00
53480;BME280;56133;51.012;-1.648;2022-08-18T03:10:56;100529.69;;;15.82;100.00
53480;BME280;56133;51.012;-1.648;2022-08-18T03:13:22;100530.38;;;15.84;100.00
53480;BME280;56133;51.012;-1.648;2022-08-18T03:15:48;100528.53;;;15.84;100.00
53480;BME280;56133;51.012;-1.648;2022-08-18T03:18:14;100525.34;;;15.89;100.00
53480;BME280;56133;51.012;-1.648;2022-08-18T03:20:40;100530.28;;;16.02;100.00
53480;BME280;56133;51.012;-1.648;2022-08-18T03:23:08;100535.00;;;16.08;100.00
53480;BME280;56133;51.012;-1.648;2022-08-18T03:25:33;100533.16;;;16.08;100.00
53480;BME280;56133;51.012;-1.648;2022-08-18T03:28:02;100535.16;;;15.98;100.00
53480;BME280;56133;51.012;-1.648;2022-08-18T03:30:27;100529.75;;;16.06;100.00
53480;BME280;56133;51.012;-1.648;2022-08-18T03:32:53;100530.97;;;16.04;100.00
53480;BME280;56133;51.012;-1.648;2022-08-18T03:35:18;100531.44;;;15.99;100.00
53480;BME280;56133;51.012;-1.648;2022-08-18T03:37:44;100532.47;;;15.98;100.00
53480;BME280;56133;51.012;-1.648;2022-08-18T03:40:09;100527.72;;;16.17;100.00
53480;BME280;56133;51.012;-1.648;2022-08-18T03:42:35;100517.41;;;16.20;100.00
53480;BME280;56133;51.012;-1.648;2022-08-18T03:45:01;100519.94;;;16.14;100.00
53480;BME280;56133;51.012;-1.648;2022-08-18T03:47:26;100512.47;;;16.16;100.00
53480;BME280;56133;51.012;-1.648;2022-08-18T03:49:52;100514.53;;;16.05;100.00
53480;BME280;56133;51.012;-1.648;2022-08-18T03:52:18;100521.63;;;15.98;100.00
53480;BME280;56133;51.012;-1.648;2022-08-18T03:54:44;100523.16;;;15.92;100.00
53480;BME280;56133;51.012;-1.648;2022-08-18T03:57:10;100523.47;;;16.06;100.00
53480;BME280;56133;51.012;-1.648;2022-08-18T03:59:37;100518.75;;;16.08;100.00
53480;BME280;56133;51.012;-1.648;2022-08-18T04:02:05;100519.78;;;16.15;100.00
53480;BME280;56133;51.012;-1.648;2022-08-18T04:04:31;100527.53;;;16.27;100.00
53480;BME280;56133;51.012;-1.648;2022-08-18T04:07:09;100519.94;;;16.22;100.00
53480;BME280;56133;51.012;-1.648;2022-08-18T04:09:36;100518.06;;;16.31;100.00
53480;BME280;56133;51.012;-1.648;2022-08-18T04:12:07;100517.22;;;16.30;100.00
53480;BME280;56133;51.012;-1.648;2022-08-18T04:14:39;100521.81;;;16.21;100.00
53480;BME280;56133;51.012;-1.648;2022-08-18T04:17:05;100524.50;;;16.13;100.00
53480;BME280;56133;51.012;-1.648;2022-08-18T04:19:31;100518.94;;;16.06;100.00
53480;BME280;56133;51.012;-1.648;2022-08-18T04:21:59;100527.53;;;16.27;100.00
53480;BME280;56133;51.012;-1.648;2022-08-18T04:24:26;100531.97;;;16.19;100.00
53480;BME280;56133;51.012;-1.648;2022-08-18T04:26:54;100536.53;;;16.11;100.00
53480;BME280;56133;51.012;-1.648;2022-08-18T04:29:20;100534.16;;;16.07;100.00
53480;BME280;56133;51.012;-1.648;2022-08-18T04:31:46;100532.66;;;16.05;100.00
53480;BME280;56133;51.012;-1.648;2022-08-18T04:34:12;100544.50;;;16.04;100.00
53480;BME280;56133;51.012;-1.648;2022-08-18T04:36:38;100546.34;;;16.03;100.00
53480;BME280;56133;51.012;-1.648;2022-08-18T04:39:06;100547.03;;;16.05;100.00
53480;BME280;56133;51.012;-1.648;2022-08-18T04:41:32;100543.13;;;16.08;100.00
53480;BME280;56133;51.012;-1.648;2022-08-18T04:44:01;100545.34;;;16.13;100.00
53480;BME280;56133;51.012;-1.648;2022-08-18T04:46:28;100546.53;;;16.18;100.00
53480;BME280;56133;51.012;-1.648;2022-08-18T04:48:57;100538.38;;;16.27;100.00
53480;BME280;56133;51.012;-1.648;2022-08-18T04:51:27;100550.09;;;16.27;100.00
53480;BME280;56133;51.012;-1.648;2022-08-18T04:53:54;100547.19;;;16.29;100.00
53480;BME280;56133;51.012;-1.648;2022-08-18T04:56:21;100549.41;;;16.33;100.00
53480;BME280;56133;51.012;-1.648;2022-08-18T04:59:03;100541.09;;;16.35;100.00
53480;BME280;56133;51.012;-1.648;2022-08-18T05:01:36;100543.47;;;16.38;100.00
53480;BME280;56133;51.012;-1.648;2022-08-18T05:04:02;100550.22;;;16.42;100.00
53480;BME280;56133;51.012;-1.648;2022-08-18T05:06:28;100545.34;;;16.37;100.00
53480;BME280;56133;51.012;-1.648;2022-08-18T05:08:58;100546.84;;;16.40;100.00
53480;BME280;56133;51.012;-1.648;2022-08-18T05:11:26;100545.50;;;16.44;100.00
53480;BME280;56133;51.012;-1.648;2022-08-18T05:14:04;100547.53;;;16.50;100.00
53480;BME280;56133;51.012;-1.648;2022-08-18T05:16:30;100547.69;;;16.49;100.00
53480;BME280;56133;51.012;-1.648;2022-08-18T05:19:10;100542.09;;;16.50;100.00
53480;BME280;56133;51.012;-1.648;2022-08-18T05:21:39;100547.53;;;16.50;100.00
53480;BME280;56133;51.012;-1.648;2022-08-18T05:24:08;100540.06;;;16.52;100.00
53480;BME280;56133;51.012;-1.648;2022-08-18T05:26:35;100538.53;;;16.58;100.00
53480;BME280;56133;51.012;-1.648;2022-08-18T05:29:01;100534.81;;;16.59;100.00
53480;BME280;56133;51.012;-1.648;2022-08-18T05:31:28;100535.28;;;16.71;100.00
53480;BME280;56133;51.012;-1.648;2022-08-18T05:33:54;100534.78;;;16.67;100.00
53480;BME280;56133;51.012;-1.648;2022-08-18T05:44:22;100540.53;;;16.81;100.00
53480;BME280;56133;51.012;-1.648;2022-08-18T05:46:55;100537.97;;;16.79;100.00
53480;BME280;56133;51.012;-1.648;2022-08-18T05:49:23;100541.22;;;16.75;100.00
53480;BME280;56133;51.012;-1.648;2022-08-18T05:51:58;100548.81;;;16.79;100.00
53480;BME280;56133;51.012;-1.648;2022-08-18T05:54:28;100539.31;;;16.83;100.00
53480;BME280;56133;51.012;-1.648;2022-08-18T05:57:18;100543.25;;;16.81;100.00
53480;BME280;56133;51.012;-1.648;2022-08-18T05:59:47;100553.72;;;16.92;100.00
53480;BME280;56133;51.012;-1.648;2022-08-18T06:04:54;100548.47;;;16.91;100.00
53480;BME280;56133;51.012;-1.648;2022-08-18T06:07:44;100539.94;;;16.94;100.00
53480;BME280;56133;51.012;-1.648;2022-08-18T06:10:13;100540.97;;;16.93;100.00
53480;BME280;56133;51.012;-1.648;2022-08-18T06:12:45;100546.91;;;17.05;100.00
53480;BME280;56133;51.012;-1.648;2022-08-18T06:26:21;100549.31;;;17.39;100.00
53480;BME280;56133;51.012;-1.648;2022-08-18T06:34:34;100551.16;;;17.47;100.00
53480;BME280;56133;51.012;-1.648;2022-08-18T06:37:19;100540.22;;;17.55;100.00
53480;BME280;56133;51.012;-1.648;2022-08-18T06:39:50;100542.09;;;17.55;100.00
53480;BME280;56133;51.012;-1.648;2022-08-18T06:42:21;100542.66;;;17.73;100.00
53480;BME280;56133;51.012;-1.648;2022-08-18T06:45:00;100539.94;;;17.73;100.00
53480;BME280;56133;51.012;-1.648;2022-08-18T06:50:26;100534.88;;;17.70;100.00
53480;BME280;56133;51.012;-1.648;2022-08-18T06:52:58;100543.56;;;17.66;100.00
53480;BME280;56133;51.012;-1.648;2022-08-18T07:00:43;100537.44;;;18.18;100.00
53480;BME280;56133;51.012;-1.648;2022-08-18T07:03:15;100537.16;;;18.28;100.00
53480;BME280;56133;51.012;-1.648;2022-08-18T07:08:47;100536.59;;;18.86;100.00
53480;BME280;56133;51.012;-1.648;2022-08-18T07:11:18;100539.69;;;18.83;100.00
53480;BME280;56133;51.012;-1.648;2022-08-18T07:13:49;100541.13;;;19.09;100.00
53480;BME280;56133;51.012;-1.648;2022-08-18T07:18:40;100533.78;;;19.09;100.00
53480;BME280;56133;51.012;-1.648;2022-08-18T07:21:07;100536.13;;;19.13;100.00
53480;BME280;56133;51.012;-1.648;2022-08-18T07:23:38;100544.22;;;19.21;100.00
53480;BME280;56133;51.012;-1.648;2022-08-18T07:26:14;100545.41;;;19.33;100.00
53480;BME280;56133;51.012;-1.648;2022-08-18T07:28:48;100552.13;;;19.52;100.00
53480;BME280;56133;51.012;-1.648;2022-08-18T07:31:41;100551.78;;;19.99;100.00
53480;BME280;56133;51.012;-1.648;2022-08-18T07:34:15;100550.97;;;20.20;100.00
53480;BME280;56133;51.012;-1.648;2022-08-18T07:36:57;100544.72;;;19.83;100.00
53480;BME280;56133;51.012;-1.648;2022-08-18T07:42:13;100547.94;;;19.71;100.00
53480;BME280;56133;51.012;-1.648;2022-08-18T07:44:48;100549.88;;;19.78;100.00
53480;BME280;56133;51.012;-1.648;2022-08-18T07:47:23;100548.38;;;20.12;100.00
53480;BME280;56133;51.012;-1.648;2022-08-18T07:49:51;100561.88;;;19.98;100.00
53480;BME280;56133;51.012;-1.648;2022-08-18T07:52:35;100553.00;;;19.75;100.00
53480;BME280;56133;51.012;-1.648;2022-08-18T08:00:04;100557.34;;;20.06;100.00
53480;BME280;56133;51.012;-1.648;2022-08-18T08:02:54;100561.09;;;20.05;100.00
53480;BME280;56133;51.012;-1.648;2022-08-18T08:08:15;100565.41;;;20.42;100.00
53480;BME280;56133;51.012;-1.648;2022-08-18T08:21:23;100569.28;;;20.55;100.00
53480;BME280;56133;51.012;-1.648;2022-08-18T08:26:52;100561.66;;;20.22;100.00
53480;BME280;56133;51.012;-1.648;2022-08-18T08:29:36;100565.22;;;20.44;100.00
53480;BME280;56133;51.012;-1.648;2022-08-18T08:32:10;100573.03;;;20.75;100.00
53480;BME280;56133;51.012;-1.648;2022-08-18T08:34:40;100566.22;;;20.93;100.00
53480;BME280;56133;51.012;-1.648;2022-08-18T08:37:15;100561.00;;;20.98;100.00
53480;BME280;56133;51.012;-1.648;2022-08-18T08:39:49;100571.28;;;20.96;100.00
53480;BME280;56133;51.012;-1.648;2022-08-18T08:42:40;100565.91;;;21.10;100.00
53480;BME280;56133;51.012;-1.648;2022-08-18T08:45:22;100572.53;;;21.35;100.00
53480;BME280;56133;51.012;-1.648;2022-08-18T08:48:38;100571.34;;;21.51;100.00
53480;BME280;56133;51.012;-1.648;2022-08-18T08:50:46;100572.53;;;21.35;100.00
53480;BME280;56133;51.012;-1.648;2022-08-18T08:53:33;100571.53;;;21.43;100.00
53480;BME280;56133;51.012;-1.648;2022-08-18T08:56:04;100566.22;;;21.35;100.00
53480;BME280;56133;51.012;-1.648;2022-08-18T09:01:03;100563.84;;;21.60;100.00
53480;BME280;56133;51.012;-1.648;2022-08-18T09:17:22;100558.16;;;21.62;100.00
53480;BME280;56133;51.012;-1.648;2022-08-18T09:25:46;100549.84;;;22.57;93.52
53480;BME280;56133;51.012;-1.648;2022-08-18T09:33:49;100557.16;;;23.04;90.67
53480;BME280;56133;51.012;-1.648;2022-08-18T09:39:06;100563.66;;;23.16;88.68
53480;BME280;56133;51.012;-1.648;2022-08-18T09:42:01;100572.56;;;22.92;88.98
53480;BME280;56133;51.012;-1.648;2022-08-18T09:49:53;100572.81;;;22.56;91.91
53480;BME280;56133;51.012;-1.648;2022-08-18T09:54:52;100568.13;;;22.03;89.00
53480;BME280;56133;51.012;-1.648;2022-08-18T09:57:27;100571.47;;;21.85;89.58
53480;BME280;56133;51.012;-1.648;2022-08-18T10:07:41;100564.31;;;21.84;84.59
53480;BME280;56133;51.012;-1.648;2022-08-18T10:12:58;100555.31;;;22.24;92.06
53480;BME280;56133;51.012;-1.648;2022-08-18T10:23:44;100542.34;;;23.25;83.11
53480;BME280;56133;51.012;-1.648;2022-08-18T10:34:41;100533.22;;;24.60;71.90
53480;BME280;56133;51.012;-1.648;2022-08-18T10:39:59;100547.47;;;23.92;69.00
53480;BME280;56133;51.012;-1.648;2022-08-18T10:43:15;100542.19;;;23.59;77.88
53480;BME280;56133;51.012;-1.648;2022-08-18T10:45:51;100541.34;;;24.48;74.10
53480;BME280;56133;51.012;-1.648;2022-08-18T10:48:30;100538.66;;;23.84;69.07
53480;BME280;56133;51.012;-1.648;2022-08-18T10:51:17;100534.94;;;23.39;71.91
53480;BME280;56133;51.012;-1.648;2022-08-18T10:53:59;100524.03;;;23.12;79.62
53480;BME280;56133;51.012;-1.648;2022-08-18T10:56:45;100524.66;;;23.14;78.80
53480;BME280;56133;51.012;-1.648;2022-08-18T10:59:33;100515.19;;;23.03;72.01
53480;BME280;56133;51.012;-1.648;2022-08-18T11:04:43;100522.75;;;23.15;73.12
53480;BME280;56133;51.012;-1.648;2022-08-18T11:07:13;100527.28;;;23.48;76.97
53480;BME280;56133;51.012;-1.648;2022-08-18T11:09:45;100524.63;;;23.67;74.25
53480;BME280;56133;51.012;-1.648;2022-08-18T11:12:12;100526.16;;;23.94;75.57
53480;BME280;56133;51.012;-1.648;2022-08-18T11:15:54;100519.78;;;24.01;70.65
53480;BME280;56133;51.012;-1.648;2022-08-18T11:18:21;100511.47;;;24.14;67.58
53480;BME280;56133;51.012;-1.648;2022-08-18T11:20:53;100505.69;;;24.66;67.87
53480;BME280;56133;51.012;-1.648;2022-08-18T11:23:19;100511.31;;;25.15;61.25
53480;BME280;56133;51.012;-1.648;2022-08-18T11:25:45;100507.50;;;24.98;66.05
53480;BME280;56133;51.012;-1.648;2022-08-18T11:28:21;100512.03;;;24.67;65.31
53480;BME280;56133;51.012;-1.648;2022-08-18T11:30:51;100512.66;;;24.44;66.08
53480;BME280;56133;51.012;-1.648;2022-08-18T11:33:19;100512.59;;;24.32;61.58
53480;BME280;56133;51.012;-1.648;2022-08-18T11:35:49;100507.25;;;24.12;66.15
53480;BME280;56133;51.012;-1.648;2022-08-18T11:38:16;100510.56;;;23.88;66.36
53480;BME280;56133;51.012;-1.648;2022-08-18T11:40:49;100506.25;;;25.12;59.54
53480;BME280;56133;51.012;-1.648;2022-08-18T11:43:27;100495.66;;;26.55;56.80
53480;BME280;56133;51.012;-1.648;2022-08-18T11:45:56;100487.06;;;25.85;57.80
53480;BME280;56133;51.012;-1.648;2022-08-18T11:48:34;100493.59;;;24.93;55.88
53480;BME280;56133;51.012;-1.648;2022-08-18T11:51:08;100500.78;;;24.50;58.30
53480;BME280;56133;51.012;-1.648;2022-08-18T11:53:51;100491.91;;;25.59;55.45
53480;BME280;56133;51.012;-1.648;2022-08-18T12:04:12;100492.88;;;28.63;46.61
53480;BME280;56133;51.012;-1.648;2022-08-18T12:09:47;100489.25;;;27.89;47.68
53480;BME280;56133;51.012;-1.648;2022-08-18T12:12:25;100492.31;;;27.93;47.52
53480;BME280;56133;51.012;-1.648;2022-08-18T12:15:03;100490.88;;;29.70;46.73
53480;BME280;56133;51.012;-1.648;2022-08-18T12:17:31;100478.06;;;30.23;42.38
53480;BME280;56133;51.012;-1.648;2022-08-18T12:19:57;100472.31;;;30.40;39.65
53480;BME280;56133;51.012;-1.648;2022-08-18T12:22:26;100481.16;;;30.75;38.21
53480;BME280;56133;51.012;-1.648;2022-08-18T12:24:53;100484.34;;;29.31;41.08
53480;BME280;56133;51.012;-1.648;2022-08-18T12:27:22;100481.03;;;29.07;40.43
53480;BME280;56133;51.012;-1.648;2022-08-18T12:29:49;100474.91;;;30.52;40.44
53480;BME280;56133;51.012;-1.648;2022-08-18T12:32:16;100469.06;;;30.49;39.79
53480;BME280;56133;51.012;-1.648;2022-08-18T12:34:42;100467.97;;;30.50;36.62
53480;BME280;56133;51.012;-1.648;2022-08-18T12:37:08;100463.34;;;30.61;36.73
53480;BME280;56133;51.012;-1.648;2022-08-18T12:39:35;100469.31;;;30.90;38.38
53480;BME280;56133;51.012;-1.648;2022-08-18T12:42:00;100462.59;;;30.81;38.24
53480;BME280;56133;51.012;-1.648;2022-08-18T12:44:26;100469.34;;;30.47;38.04
53480;BME280;56133;51.012;-1.648;2022-08-18T12:46:51;100457.81;;;30.61;37.12
53480;BME280;56133;51.012;-1.648;2022-08-18T12:49:22;100461.59;;;28.74;38.96
53480;BME280;56133;51.012;-1.648;2022-08-18T12:51:48;100455.31;;;29.56;37.75
53480;BME280;56133;51.012;-1.648;2022-08-18T12:54:14;100446.38;;;30.09;36.07
53480;BME280;56133;51.012;-1.648;2022-08-18T12:56:40;100439.19;;;31.14;39.47
53480;BME280;56133;51.012;-1.648;2022-08-18T12:59:08;100439.00;;;31.88;36.89
53480;BME280;56133;51.012;-1.648;2022-08-18T13:01:36;100440.31;;;30.60;40.10
53480;BME280;56133;51.012;-1.648;2022-08-18T13:04:02;100438.56;;;29.68;38.07
53480;BME280;56133;51.012;-1.648;2022-08-18T13:06:28;100445.63;;;28.82;39.66
53480;BME280;56133;51.012;-1.648;2022-08-18T13:08:54;100435.19;;;27.76;40.75
53480;BME280;56133;51.012;-1.648;2022-08-18T13:11:22;100445.88;;;28.41;40.36
53480;BME280;56133;51.012;-1.648;2022-08-18T13:13:48;100436.25;;;30.30;36.97
53480;BME280;56133;51.012;-1.648;2022-08-18T13:16:15;100448.84;;;28.56;37.94
53480;BME280;56133;51.012;-1.648;2022-08-18T13:18:42;100431.97;;;28.53;42.89
53480;BME280;56133;51.012;-1.648;2022-08-18T13:21:09;100445.94;;;29.57;39.92
53480;BME280;56133;51.012;-1.648;2022-08-18T13:23:35;100438.69;;;29.83;37.17
53480;BME280;56133;51.012;-1.648;2022-08-18T13:26:02;100443.41;;;28.61;40.17
53480;BME280;56133;51.012;-1.648;2022-08-18T13:28:30;100448.03;;;28.16;44.98
53480;BME280;56133;51.012;-1.648;2022-08-18T13:30:56;100448.91;;;27.88;42.21
53480;BME280;56133;51.012;-1.648;2022-08-18T13:33:22;100439.72;;;27.65;44.61
53480;BME280;56133;51.012;-1.648;2022-08-18T13:35:48;100433.34;;;27.48;43.49
53480;BME280;56133;51.012;-1.648;2022-08-18T13:38:15;100438.75;;;27.42;44.86
53480;BME280;56133;51.012;-1.648;2022-08-18T13:40:42;100440.28;;;27.21;46.39
53480;BME280;56133;51.012;-1.648;2022-08-18T13:43:09;100436.06;;;26.78;48.40
53480;BME280;56133;51.012;-1.648;2022-08-18T13:45:35;100428.53;;;26.73;48.32
53480;BME280;56133;51.012;-1.648;2022-08-18T13:48:01;100436.97;;;26.43;45.60
53480;BME280;56133;51.012;-1.648;2022-08-18T13:50:26;100437.69;;;26.38;49.75
53480;BME280;56133;51.012;-1.648;2022-08-18T13:52:52;100430.16;;;26.33;48.09
53480;BME280;56133;51.012;-1.648;2022-08-18T13:55:18;100426.19;;;25.82;47.52
53480;BME280;56133;51.012;-1.648;2022-08-18T13:57:45;100427.38;;;25.86;48.57
53480;BME280;56133;51.012;-1.648;2022-08-18T14:00:18;100424.41;;;25.99;49.61
53480;BME280;56133;51.012;-1.648;2022-08-18T14:02:45;100425.09;;;26.06;51.90
53480;BME280;56133;51.012;-1.648;2022-08-18T14:05:12;100435.69;;;26.21;51.06
53480;BME280;56133;51.012;-1.648;2022-08-18T14:07:38;100426.66;;;25.90;52.75
53480;BME280;56133;51.012;-1.648;2022-08-18T14:10:05;100437.88;;;25.89;52.80
53480;BME280;56133;51.012;-1.648;2022-08-18T14:12:34;100442.19;;;25.73;55.92
53480;BME280;56133;51.012;-1.648;2022-08-18T14:15:02;100444.84;;;25.80;54.89
53480;BME280;56133;51.012;-1.648;2022-08-18T14:17:29;100452.34;;;25.72;55.62
53480;BME280;56133;51.012;-1.648;2022-08-18T14:19:54;100451.97;;;25.38;54.23
53480;BME280;56133;51.012;-1.648;2022-08-18T14:22:38;100449.28;;;25.20;58.06
53480;BME280;56133;51.012;-1.648;2022-08-18T14:25:22;100448.81;;;25.23;55.29
53480;BME280;56133;51.012;-1.648;2022-08-18T14:28:06;100454.75;;;25.08;57.07
53480;BME280;56133;51.012;-1.648;2022-08-18T14:30:33;100457.09;;;25.04;56.17
53480;BME280;56133;51.012;-1.648;2022-08-18T14:32:59;100454.94;;;24.76;58.76
53480;BME280;56133;51.012;-1.648;2022-08-18T14:35:25;100457.66;;;24.76;59.75
53480;BME280;56133;51.012;-1.648;2022-08-18T14:37:50;100450.53;;;24.68;59.48
53480;BME280;56133;51.012;-1.648;2022-08-18T14:40:16;100452.00;;;24.89;58.37
53480;BME280;56133;51.012;-1.648;2022-08-18T14:42:43;100447.66;;;25.00;58.55
53480;BME280;56133;51.012;-1.648;2022-08-18T14:45:09;100444.22;;;25.78;56.46
53480;BME280;56133;51.012;-1.648;2022-08-18T14:47:39;100441.88;;;25.20;55.51
53480;BME280;56133;51.012;-1.648;2022-08-18T14:50:07;100443.50;;;25.40;55.32
53480;BME280;56133;51.012;-1.648;2022-08-18T14:52:40;100441.69;;;25.64;55.32
53480;BME280;56133;51.012;-1.648;2022-08-18T14:55:07;100435.78;;;25.49;53.89
53480;BME280;56133;51.012;-1.648;2022-08-18T14:57:36;100438.94;;;25.34;56.86
53480;BME280;56133;51.012;-1.648;2022-08-18T15:00:04;100437.25;;;25.33;55.02
53480;BME280;56133;51.012;-1.648;2022-08-18T15:02:29;100436.66;;;25.61;55.57
53480;BME280;56133;51.012;-1.648;2022-08-18T15:04:55;100441.06;;;25.31;57.08
53480;BME280;56133;51.012;-1.648;2022-08-18T15:07:20;100431.41;;;25.59;54.59
53480;BME280;56133;51.012;-1.648;2022-08-18T15:09:46;100440.63;;;26.96;54.34
53480;BME280;56133;51.012;-1.648;2022-08-18T15:12:12;100434.19;;;28.34;46.93
53480;BME280;56133;51.012;-1.648;2022-08-18T15:14:39;100434.03;;;29.07;45.09
53480;BME280;56133;51.012;-1.648;2022-08-18T15:17:04;100435.66;;;29.58;43.94
53480;BME280;56133;51.012;-1.648;2022-08-18T15:19:33;100425.97;;;29.88;44.20